Time;durP1;ratioP1;P1;durP2;ratioP2;P2;SDS_P1;SDS_P2;PMS_P1;PMS_P2;Temp;Humidity;BMP_temperature;BMP_pressure;BME280_temperature;BME280_humidity;BME280_pressure;Samples;Min_cycle;Max_cycle;Signal;HPM_P1;HPM_P2
2023/10/26 00:00:07;;;;;;;31.85;15.35;;;;;;;;;;5057342;27;99338;-73
2023/10/26 00:02:37;;;;;;;29.08;16.33;;;;;;;;;;5061405;27;99342;-74
2023/10/26 00:05:04;;;;;;;32.80;17.13;;;;;;;;;;5067508;27;100294;-74
2023/10/26 00:07:31;;;;;;;26.77;16.58;;;;;;;;;;5066465;27;99638;-73
2023/10/26 00:09:57;;;;;;;49.75;18.20;;;;;;;;;;5060598;27;99069;-73
2023/10/26 00:12:24;;;;;;;35.88;16.58;;;;;;;;;;5070443;27;100284;-74
2023/10/26 00:14:50;;;;;;;38.60;17.50;;;;;;;;;;5056480;27;99155;-73
2023/10/26 00:17:17;;;;;;;32.10;16.52;;;;;;;;;;5067555;27;99649;-73
2023/10/26 00:19:43;;;;;;;41.22;17.60;;;;;;;;;;5060373;27;99474;-75
2023/10/26 00:22:10;;;;;;;31.10;16.75;;;;;;;;;;5047535;27;99932;-73
2023/10/26 00:24:37;;;;;;;34.45;16.38;;;;;;;;;;5060465;27;100929;-74
2023/10/26 00:27:04;;;;;;;34.75;16.65;;;;;;;;;;5066850;27;98992;-73
2023/10/26 00:29:30;;;;;;;39.45;17.15;;;;;;;;;;5056384;27;99427;-73
2023/10/26 00:31:57;;;;;;;38.75;16.92;;;;;;;;;;5052864;27;100460;-73
2023/10/26 00:34:23;;;;;;;32.13;16.52;;;;;;;;;;5065603;27;98610;-75
2023/10/26 00:36:50;;;;;;;28.45;17.30;;;;;;;;;;5058068;27;99519;-74
2023/10/26 00:39:17;;;;;;;28.95;15.43;;;;;;;;;;5058601;27;98652;-74
2023/10/26 00:41:44;;;;;;;33.78;16.75;;;;;;;;;;5056293;27;100111;-73
2023/10/26 00:44:11;;;;;;;31.33;17.00;;;;;;;;;;5057031;27;99144;-74
2023/10/26 00:46:37;;;;;;;26.35;16.70;;;;;;;;;;5063143;27;99039;-73
2023/10/26 00:49:04;;;;;;;38.28;18.80;;;;;;;;;;5060696;27;99722;-73
2023/10/26 00:51:32;;;;;;;29.65;18.23;;;;;;;;;;5062347;27;100627;-73
2023/10/26 00:54:00;;;;;;;36.50;17.65;;;;;;;;;;5069022;27;100136;-73
2023/10/26 00:56:27;;;;;;;42.30;17.70;;;;;;;;;;5064393;27;99047;-73
2023/10/26 00:58:55;;;;;;;41.53;18.92;;;;;;;;;;5062940;27;98835;-75
2023/10/26 01:01:21;;;;;;;35.22;18.25;;;;;;;;;;5060299;27;101762;-74
2023/10/26 01:03:49;;;;;;;39.50;18.85;;;;;;;;;;5057174;27;100259;-74
2023/10/26 01:06:15;;;;;;;41.63;18.52;;;;;;;;;;5056356;27;98938;-74
2023/10/26 01:08:42;;;;;;;49.60;20.48;;;;;;;;;;5059769;27;98607;-74
2023/10/26 01:11:11;;;;;;;44.00;19.00;;;;;;;;;;5062311;27;100382;-75
2023/10/26 01:13:38;;;;;;;51.03;19.20;;;;;;;;;;5061014;27;99693;-75
2023/10/26 01:16:06;;;;;;;40.47;18.58;;;;;;;;;;5092657;27;100683;-75
2023/10/26 01:18:34;;;;;;;41.50;19.17;;;;;;;;;;5062086;27;100967;-74
2023/10/26 01:21:00;;;;;;;60.10;21.00;;;;;;;;;;5066637;27;99113;-74
2023/10/26 01:23:27;;;;;;;50.38;19.92;;;;;;;;;;5056765;27;99438;-74
2023/10/26 01:25:54;;;;;;;39.00;19.48;;;;;;;;;;5059836;27;100365;-75
2023/10/26 01:28:23;;;;;;;42.97;18.95;;;;;;;;;;5056131;27;98978;-75
2023/10/26 01:30:49;;;;;;;48.42;20.25;;;;;;;;;;5057605;27;98506;-74
2023/10/26 01:33:16;;;;;;;44.40;20.98;;;;;;;;;;5064848;27;99299;-74
2023/10/26 01:35:45;;;;;;;43.10;19.67;;;;;;;;;;5057597;27;101860;-75
2023/10/26 01:38:12;;;;;;;48.40;21.00;;;;;;;;;;5063762;27;99950;-74
2023/10/26 01:40:39;;;;;;;44.45;20.42;;;;;;;;;;5057924;27;99493;-74
2023/10/26 01:43:06;;;;;;;43.90;19.45;;;;;;;;;;5053808;27;99814;-74
2023/10/26 01:45:33;;;;;;;59.03;20.58;;;;;;;;;;5063775;27;99059;-74
2023/10/26 01:48:00;;;;;;;60.65;20.58;;;;;;;;;;5052313;27;101418;-74
2023/10/26 01:50:26;;;;;;;36.35;19.10;;;;;;;;;;5058626;27;101851;-74
2023/10/26 01:52:53;;;;;;;46.28;20.40;;;;;;;;;;5055365;27;100823;-74
2023/10/26 01:55:22;;;;;;;47.35;20.15;;;;;;;;;;5057924;27;100885;-74
2023/10/26 01:57:48;;;;;;;48.20;20.58;;;;;;;;;;5060068;27;101796;-74
2023/10/26 02:00:15;;;;;;;41.45;20.75;;;;;;;;;;5065567;27;101054;-74
2023/10/26 02:02:42;;;;;;;50.20;20.88;;;;;;;;;;5051800;27;100780;-74
2023/10/26 02:05:09;;;;;;;40.90;19.88;;;;;;;;;;5050725;27;100964;-74
2023/10/26 02:07:37;;;;;;;44.67;20.33;;;;;;;;;;5057839;27;99585;-74
2023/10/26 02:10:03;;;;;;;48.25;19.55;;;;;;;;;;5058625;27;100409;-74
2023/10/26 02:12:30;;;;;;;40.85;20.23;;;;;;;;;;5059326;27;99132;-74
2023/10/26 02:14:56;;;;;;;46.45;20.48;;;;;;;;;;5061249;27;99571;-74
2023/10/26 02:17:23;;;;;;;48.13;20.40;;;;;;;;;;5051213;27;100400;-73
2023/10/26 02:19:49;;;;;;;37.35;19.88;;;;;;;;;;5055143;27;101735;-74
2023/10/26 02:22:16;;;;;;;48.92;20.83;;;;;;;;;;5074396;27;100766;-74
2023/10/26 02:24:42;;;;;;;44.50;20.13;;;;;;;;;;5053190;27;100487;-74
2023/10/26 02:27:09;;;;;;;41.38;20.65;;;;;;;;;;5048523;27;100132;-74
2023/10/26 02:29:36;;;;;;;54.33;21.13;;;;;;;;;;5060171;27;102482;-74
2023/10/26 02:32:02;;;;;;;35.95;20.02;;;;;;;;;;5053862;27;101947;-73
2023/10/26 02:34:29;;;;;;;44.97;20.35;;;;;;;;;;5059314;27;98821;-74
2023/10/26 02:36:57;;;;;;;48.42;19.90;;;;;;;;;;5055806;27;100460;-74
2023/10/26 02:39:24;;;;;;;48.97;20.52;;;;;;;;;;5056943;27;100963;-74
2023/10/26 02:41:51;;;;;;;50.40;21.73;;;;;;;;;;5051652;27;99400;-74
2023/10/26 02:44:18;;;;;;;62.15;21.75;;;;;;;;;;5062300;27;99952;-74
2023/10/26 02:46:44;;;;;;;71.78;22.13;;;;;;;;;;5054944;27;98944;-72
2023/10/26 02:49:11;;;;;;;80.95;21.27;;;;;;;;;;5058062;27;101480;-74
2023/10/26 02:51:37;;;;;;;44.92;19.88;;;;;;;;;;5063769;27;100066;-74
2023/10/26 02:54:03;;;;;;;64.35;21.70;;;;;;;;;;5047816;27;99794;-74
2023/10/26 02:56:30;;;;;;;68.15;22.63;;;;;;;;;;5054379;27;99145;-73
2023/10/26 02:58:56;;;;;;;82.18;22.05;;;;;;;;;;5062947;27;98655;-74
2023/10/26 03:01:24;;;;;;;51.50;20.77;;;;;;;;;;5063199;27;100240;-72
2023/10/26 03:03:51;;;;;;;77.13;22.60;;;;;;;;;;5062240;27;99497;-73
2023/10/26 03:06:18;;;;;;;60.63;21.30;;;;;;;;;;5056059;27;101103;-73
2023/10/26 03:08:44;;;;;;;54.47;21.27;;;;;;;;;;5053977;27;98220;-73
2023/10/26 03:11:11;;;;;;;57.85;21.85;;;;;;;;;;5060134;27;99144;-72
2023/10/26 03:13:37;;;;;;;79.15;22.17;;;;;;;;;;5054962;27;99139;-74
2023/10/26 03:16:06;;;;;;;152.63;26.25;;;;;;;;;;5057298;27;101616;-75
2023/10/26 03:18:32;;;;;;;116.43;25.77;;;;;;;;;;5059163;27;100080;-74
2023/10/26 03:20:59;;;;;;;83.00;24.05;;;;;;;;;;5059301;27;100142;-74
2023/10/26 03:23:25;;;;;;;145.48;26.10;;;;;;;;;;5054644;27;99559;-74
2023/10/26 03:25:52;;;;;;;143.95;26.08;;;;;;;;;;5063181;27;100131;-74
2023/10/26 03:28:18;;;;;;;164.45;25.65;;;;;;;;;;5049586;27;101437;-74
2023/10/26 03:30:44;;;;;;;376.33;36.00;;;;;;;;;;5061217;27;98972;-74
2023/10/26 03:33:11;;;;;;;282.05;32.17;;;;;;;;;;5059070;27;100179;-74
2023/10/26 03:35:38;;;;;;;344.75;33.90;;;;;;;;;;5058756;27;100969;-74
2023/10/26 03:38:04;;;;;;;555.65;45.00;;;;;;;;;;5056289;27;99015;-74
2023/10/26 03:40:31;;;;;;;414.42;35.65;;;;;;;;;;5053731;27;100254;-75
2023/10/26 03:42:59;;;;;;;445.23;35.97;;;;;;;;;;5061062;27;100810;-74
2023/10/26 03:45:28;;;;;;;369.10;31.17;;;;;;;;;;5063795;27;99761;-74
2023/10/26 03:47:55;;;;;;;415.02;37.38;;;;;;;;;;5054077;27;98844;-74
2023/10/26 03:50:22;;;;;;;455.92;39.67;;;;;;;;;;5055588;27;99107;-74
2023/10/26 03:52:48;;;;;;;395.48;37.50;;;;;;;;;;5065066;27;99307;-74
2023/10/26 03:55:16;;;;;;;616.30;52.40;;;;;;;;;;5066252;27;100149;-73
2023/10/26 03:57:44;;;;;;;486.40;38.13;;;;;;;;;;5058110;27;98866;-73
2023/10/26 04:00:11;;;;;;;351.77;28.70;;;;;;;;;;5060098;27;100330;-73
2023/10/26 04:02:39;;;;;;;438.98;32.45;;;;;;;;;;5062895;27;99456;-73
2023/10/26 04:05:06;;;;;;;481.23;33.85;;;;;;;;;;5054913;27;100215;-73
2023/10/26 04:07:33;;;;;;;491.55;40.28;;;;;;;;;;5057516;27;99907;-73
2023/10/26 04:09:59;;;;;;;506.15;38.28;;;;;;;;;;5063053;27;100345;-72
2023/10/26 04:12:26;;;;;;;588.08;43.67;;;;;;;;;;5058233;27;99588;-74
2023/10/26 04:14:53;;;;;;;587.72;43.67;;;;;;;;;;5057002;27;100204;-73
2023/10/26 04:17:19;;;;;;;570.97;42.72;;;;;;;;;;5048389;27;100480;-74
2023/10/26 04:19:48;;;;;;;594.72;44.17;;;;;;;;;;5057977;27;100251;-74
2023/10/26 04:22:14;;;;;;;427.58;36.17;;;;;;;;;;5059111;27;99888;-74
2023/10/26 04:24:41;;;;;;;548.20;41.50;;;;;;;;;;5056569;27;99936;-74
2023/10/26 04:27:08;;;;;;;331.42;33.17;;;;;;;;;;5048853;27;99988;-74
2023/10/26 04:29:34;;;;;;;390.10;34.92;;;;;;;;;;5051397;27;102198;-73
2023/10/26 04:32:01;;;;;;;556.90;41.75;;;;;;;;;;5064805;27;99671;-73
2023/10/26 04:34:27;;;;;;;441.17;35.45;;;;;;;;;;5054040;27;100522;-74
2023/10/26 04:36:56;;;;;;;448.17;38.80;;;;;;;;;;5055624;27;99938;-74
2023/10/26 04:39:22;;;;;;;543.00;42.47;;;;;;;;;;5057120;27;100167;-74
2023/10/26 04:41:49;;;;;;;646.25;49.35;;;;;;;;;;5053488;27;100145;-73
2023/10/26 04:44:18;;;;;;;536.42;42.40;;;;;;;;;;5049657;27;99891;-73
2023/10/26 04:46:44;;;;;;;385.90;33.15;;;;;;;;;;5060448;27;99386;-73
2023/10/26 04:49:11;;;;;;;532.85;42.80;;;;;;;;;;5063411;27;100066;-73
2023/10/26 04:51:38;;;;;;;405.23;35.28;;;;;;;;;;5061250;27;99925;-73
2023/10/26 04:54:04;;;;;;;466.80;38.08;;;;;;;;;;5060724;27;99578;-74
2023/10/26 04:56:31;;;;;;;487.85;40.30;;;;;;;;;;5058229;27;98923;-74
2023/10/26 04:58:57;;;;;;;484.88;39.88;;;;;;;;;;5060151;27;99964;-73
2023/10/26 05:01:24;;;;;;;549.33;45.72;;;;;;;;;;5059629;27;100305;-74
2023/10/26 05:03:53;;;;;;;511.60;38.85;;;;;;;;;;5072793;27;99020;-73
2023/10/26 05:06:19;;;;;;;474.80;33.97;;;;;;;;;;5053616;27;100356;-73
2023/10/26 05:08:46;;;;;;;482.33;34.72;;;;;;;;;;5057562;27;100536;-73
2023/10/26 05:11:14;;;;;;;400.25;32.30;;;;;;;;;;5061832;27;100172;-73
2023/10/26 05:13:41;;;;;;;463.20;31.55;;;;;;;;;;5058365;27;100887;-74
2023/10/26 05:16:07;;;;;;;578.28;40.33;;;;;;;;;;5060059;27;99500;-74
2023/10/26 05:18:34;;;;;;;554.83;37.22;;;;;;;;;;5053766;27;101393;-73
2023/10/26 05:21:00;;;;;;;609.03;43.17;;;;;;;;;;5061276;27;100303;-73
2023/10/26 05:23:26;;;;;;;589.97;40.28;;;;;;;;;;5055582;27;98988;-74
2023/10/26 05:25:54;;;;;;;461.48;32.63;;;;;;;;;;5058643;27;99303;-73
2023/10/26 05:28:20;;;;;;;534.13;42.70;;;;;;;;;;5058735;27;100114;-74
2023/10/26 05:30:47;;;;;;;499.60;38.60;;;;;;;;;;5053701;27;99839;-75
2023/10/26 05:33:15;;;;;;;486.52;38.35;;;;;;;;;;5057219;27;99375;-74
2023/10/26 05:35:43;;;;;;;570.65;45.17;;;;;;;;;;5058425;27;99716;-73
2023/10/26 05:38:10;;;;;;;462.55;39.70;;;;;;;;;;5060682;27;99610;-75
2023/10/26 05:40:37;;;;;;;492.20;36.47;;;;;;;;;;5060827;27;98942;-74
2023/10/26 05:43:03;;;;;;;507.00;43.50;;;;;;;;;;5061113;27;99663;-75
2023/10/26 05:45:36;;;;;;;495.85;37.15;;;;;;;;;;5058896;27;100732;-74
2023/10/26 05:48:05;;;;;;;364.90;28.30;;;;;;;;;;5057552;27;100926;-74
2023/10/26 05:50:31;;;;;;;403.38;34.25;;;;;;;;;;5059439;27;99819;-74
2023/10/26 05:52:58;;;;;;;361.17;30.92;;;;;;;;;;5054335;27;100477;-74
2023/10/26 05:55:25;;;;;;;258.02;27.10;;;;;;;;;;5059405;27;98626;-74
2023/10/26 05:57:51;;;;;;;413.05;33.35;;;;;;;;;;5060509;27;99882;-74
2023/10/26 06:00:18;;;;;;;347.58;31.77;;;;;;;;;;5062544;27;99651;-74
2023/10/26 06:02:44;;;;;;;348.73;29.88;;;;;;;;;;5053741;27;98887;-74
2023/10/26 06:05:11;;;;;;;386.83;34.22;;;;;;;;;;5058220;27;100206;-74
2023/10/26 06:07:37;;;;;;;302.83;26.98;;;;;;;;;;5053361;27;100689;-74
2023/10/26 06:10:05;;;;;;;285.73;29.38;;;;;;;;;;5055632;27;100004;-74
2023/10/26 06:12:32;;;;;;;340.10;29.58;;;;;;;;;;5055574;27;100542;-74
2023/10/26 06:14:58;;;;;;;282.73;27.23;;;;;;;;;;5056632;27;99425;-74
2023/10/26 06:17:25;;;;;;;301.35;28.15;;;;;;;;;;5060511;27;99051;-74
2023/10/26 06:19:51;;;;;;;310.10;29.67;;;;;;;;;;5067571;27;100002;-74
2023/10/26 06:22:18;;;;;;;327.02;28.33;;;;;;;;;;5063753;27;98875;-74
2023/10/26 06:24:44;;;;;;;364.58;30.10;;;;;;;;;;5060536;27;99954;-74
2023/10/26 06:27:11;;;;;;;431.27;35.60;;;;;;;;;;5059181;27;100319;-74
2023/10/26 06:29:37;;;;;;;260.65;24.02;;;;;;;;;;5055240;27;99005;-74
2023/10/26 06:32:04;;;;;;;313.50;26.17;;;;;;;;;;5047299;27;99637;-74
2023/10/26 06:34:31;;;;;;;305.08;26.13;;;;;;;;;;5055992;27;100442;-74
2023/10/26 06:36:57;;;;;;;243.68;23.65;;;;;;;;;;5054234;27;99145;-76
2023/10/26 06:39:24;;;;;;;279.80;26.15;;;;;;;;;;5051584;27;99211;-74
2023/10/26 06:41:52;;;;;;;323.58;28.20;;;;;;;;;;5056144;27;100451;-73
2023/10/26 06:44:23;;;;;;;263.52;24.98;;;;;;;;;;5045175;27;99216;-75
2023/10/26 06:46:50;;;;;;;323.45;26.58;;;;;;;;;;5051719;27;100390;-74
2023/10/26 06:49:16;;;;;;;289.88;28.00;;;;;;;;;;5059981;27;99060;-75
2023/10/26 06:51:56;;;;;;;341.63;27.88;;;;;;;;;;5045990;27;100443;-73
2023/10/26 06:54:23;;;;;;;236.30;23.77;;;;;;;;;;5049378;27;99567;-74
2023/10/26 06:56:49;;;;;;;466.40;34.95;;;;;;;;;;5061084;27;100401;-74
2023/10/26 06:59:16;;;;;;;353.13;28.55;;;;;;;;;;5045819;27;101020;-74
2023/10/26 07:01:44;;;;;;;317.23;28.75;;;;;;;;;;5047334;27;99379;-75
2023/10/26 07:04:31;;;;;;;260.30;23.55;;;;;;;;;;5050089;27;98698;-74
2023/10/26 07:06:58;;;;;;;457.83;32.20;;;;;;;;;;5046543;27;100356;-74
2023/10/26 07:09:25;;;;;;;366.67;25.85;;;;;;;;;;5046034;27;100622;-75
2023/10/26 07:11:51;;;;;;;327.15;24.20;;;;;;;;;;5054476;27;100425;-74
2023/10/26 07:14:18;;;;;;;317.83;25.08;;;;;;;;;;5049937;27;100140;-74
2023/10/26 07:16:44;;;;;;;397.55;29.17;;;;;;;;;;5047914;27;100146;-73
2023/10/26 07:19:10;;;;;;;381.73;27.35;;;;;;;;;;5051457;27;100343;-74
2023/10/26 07:21:37;;;;;;;391.02;29.38;;;;;;;;;;5054492;27;100954;-73
2023/10/26 07:24:04;;;;;;;281.45;23.02;;;;;;;;;;5052922;27;99981;-73
2023/10/26 07:26:32;;;;;;;251.40;21.50;;;;;;;;;;5056068;27;99512;-73
2023/10/26 07:28:59;;;;;;;343.55;28.55;;;;;;;;;;5051174;27;99362;-73
2023/10/26 07:31:25;;;;;;;217.88;23.10;;;;;;;;;;5046867;27;99010;-74
2023/10/26 07:33:52;;;;;;;170.77;19.67;;;;;;;;;;5052949;27;99750;-73
2023/10/26 07:36:19;;;;;;;245.90;23.10;;;;;;;;;;5047865;27;99878;-74
2023/10/26 07:38:47;;;;;;;198.05;22.80;;;;;;;;;;5056464;27;99909;-74
2023/10/26 07:41:35;;;;;;;307.55;27.40;;;;;;;;;;5049236;27;100473;-74
2023/10/26 07:44:22;;;;;;;201.18;19.42;;;;;;;;;;5053565;27;99781;-75
2023/10/26 07:46:48;;;;;;;199.73;18.13;;;;;;;;;;5051057;27;99374;-75
2023/10/26 07:49:15;;;;;;;237.55;21.17;;;;;;;;;;5053239;27;99920;-74
2023/10/26 07:51:41;;;;;;;225.38;19.52;;;;;;;;;;5060279;27;100563;-76
2023/10/26 07:54:09;;;;;;;223.13;22.10;;;;;;;;;;5052846;27;99266;-74
2023/10/26 07:56:37;;;;;;;146.15;16.17;;;;;;;;;;5046780;27;100116;-75
2023/10/26 07:59:04;;;;;;;248.18;21.00;;;;;;;;;;5048579;27;99401;-75
2023/10/26 08:01:31;;;;;;;214.32;21.85;;;;;;;;;;5050002;27;99843;-76
2023/10/26 08:03:58;;;;;;;147.43;19.08;;;;;;;;;;5048908;27;99771;-75
2023/10/26 08:06:24;;;;;;;175.35;20.27;;;;;;;;;;5046223;27;99221;-75
2023/10/26 08:08:52;;;;;;;178.27;18.30;;;;;;;;;;5057252;27;99826;-75
2023/10/26 08:11:19;;;;;;;168.13;19.70;;;;;;;;;;5054881;27;100027;-74
2023/10/26 08:13:45;;;;;;;125.53;18.35;;;;;;;;;;5060881;27;100164;-75
2023/10/26 08:16:13;;;;;;;97.38;15.27;;;;;;;;;;5057085;27;100296;-75
2023/10/26 08:19:00;;;;;;;150.60;16.35;;;;;;;;;;5055222;27;99137;-74
2023/10/26 08:21:27;;;;;;;159.25;18.65;;;;;;;;;;5067118;27;100436;-75
2023/10/26 08:23:53;;;;;;;87.78;15.45;;;;;;;;;;5059120;27;100792;-75
2023/10/26 08:26:20;;;;;;;181.02;19.83;;;;;;;;;;5065475;27;99458;-74
2023/10/26 08:28:46;;;;;;;233.23;20.83;;;;;;;;;;5067715;27;99456;-74
2023/10/26 08:31:13;;;;;;;53.72;15.25;;;;;;;;;;5053847;27;98827;-74
2023/10/26 08:33:39;;;;;;;113.22;16.48;;;;;;;;;;5056580;27;100653;-75
2023/10/26 08:36:06;;;;;;;82.63;14.10;;;;;;;;;;5064936;27;99903;-74
2023/10/26 08:38:35;;;;;;;62.22;15.68;;;;;;;;;;5058472;27;100846;-74
2023/10/26 08:41:02;;;;;;;80.78;15.48;;;;;;;;;;5066629;27;100498;-74
2023/10/26 08:43:29;;;;;;;77.68;15.38;;;;;;;;;;5065236;27;99909;-74
2023/10/26 08:45:57;;;;;;;106.43;17.58;;;;;;;;;;5059018;27;100029;-74
2023/10/26 08:48:25;;;;;;;68.75;15.68;;;;;;;;;;5064769;27;99803;-74
2023/10/26 08:50:52;;;;;;;46.80;14.57;;;;;;;;;;5051231;27;98951;-74
2023/10/26 08:53:19;;;;;;;32.08;15.68;;;;;;;;;;5064002;27;99280;-74
2023/10/26 08:55:51;;;;;;;54.08;15.45;;;;;;;;;;5065937;27;100582;-74
2023/10/26 08:58:20;;;;;;;55.88;13.65;;;;;;;;;;5059014;27;100463;-74
2023/10/26 09:00:46;;;;;;;39.03;13.68;;;;;;;;;;5056796;27;100244;-74
2023/10/26 09:03:13;;;;;;;45.97;13.85;;;;;;;;;;5066633;27;99977;-74
2023/10/26 09:05:53;;;;;;;54.35;14.02;;;;;;;;;;5056730;27;99103;-73
2023/10/26 09:08:20;;;;;;;31.50;13.60;;;;;;;;;;5065619;27;100443;-74
2023/10/26 09:10:46;;;;;;;38.83;13.32;;;;;;;;;;5066290;27;99892;-74
2023/10/26 09:13:21;;;;;;;20.20;12.88;;;;;;;;;;5061611;27;99433;-74
2023/10/26 09:15:49;;;;;;;47.40;14.27;;;;;;;;;;5065418;27;100005;-74
2023/10/26 09:18:15;;;;;;;36.78;13.10;;;;;;;;;;5066759;27;100455;-74
2023/10/26 09:20:43;;;;;;;38.05;13.15;;;;;;;;;;5058488;27;100399;-74
2023/10/26 09:23:26;;;;;;;44.30;13.63;;;;;;;;;;5064829;27;100179;-74
2023/10/26 09:25:59;;;;;;;29.95;13.02;;;;;;;;;;5062312;27;99318;-74
2023/10/26 09:28:27;;;;;;;18.08;12.25;;;;;;;;;;5062352;27;99457;-74
2023/10/26 09:30:59;;;;;;;19.85;11.85;;;;;;;;;;5062074;27;100192;-74
2023/10/26 09:33:26;;;;;;;18.75;13.90;;;;;;;;;;5054979;27;99840;-74
2023/10/26 09:35:53;;;;;;;17.20;12.82;;;;;;;;;;5058351;27;100211;-74
2023/10/26 09:38:39;;;;;;;23.00;12.77;;;;;;;;;;5065731;27;99931;-74
2023/10/26 09:41:08;;;;;;;22.73;13.60;;;;;;;;;;5053496;27;100225;-74
2023/10/26 09:43:37;;;;;;;19.55;14.15;;;;;;;;;;5062206;27;99004;-74
2023/10/26 09:46:17;;;;;;;25.55;13.40;;;;;;;;;;5066018;27;99310;-74
2023/10/26 09:48:45;;;;;;;21.20;13.48;;;;;;;;;;5047058;27;99601;-74
2023/10/26 09:51:14;;;;;;;16.60;12.68;;;;;;;;;;5057877;27;101096;-74
2023/10/26 09:53:41;;;;;;;19.27;13.23;;;;;;;;;;5065202;27;100963;-74
2023/10/26 09:56:17;;;;;;;21.98;14.55;;;;;;;;;;5045691;27;100701;-74
2023/10/26 09:58:43;;;;;;;19.27;13.60;;;;;;;;;;5065519;27;99217;-74
2023/10/26 10:01:28;;;;;;;18.40;12.60;;;;;;;;;;5060614;27;100150;-74
2023/10/26 10:03:55;;;;;;;20.48;14.43;;;;;;;;;;5056340;27;98947;-74
2023/10/26 10:06:40;;;;;;;18.73;13.88;;;;;;;;;;5064946;27;100242;-74
2023/10/26 10:09:07;;;;;;;20.17;14.00;;;;;;;;;;5058686;27;100513;-74
2023/10/26 10:11:33;;;;;;;18.17;13.18;;;;;;;;;;5064588;27;99895;-74
2023/10/26 10:14:00;;;;;;;18.25;13.43;;;;;;;;;;5065349;27;100527;-74
2023/10/26 10:16:35;;;;;;;18.55;13.85;;;;;;;;;;5050755;27;100968;-74
2023/10/26 10:19:22;;;;;;;21.80;14.38;;;;;;;;;;5064081;27;100110;-75
2023/10/26 10:21:51;;;;;;;19.27;13.88;;;;;;;;;;5068358;27;99418;-74
2023/10/26 10:24:37;;;;;;;16.30;12.65;;;;;;;;;;5057251;27;99930;-73
2023/10/26 10:27:07;;;;;;;19.63;13.48;;;;;;;;;;5063989;27;99815;-74
2023/10/26 10:29:33;;;;;;;18.88;13.73;;;;;;;;;;5063902;27;100155;-74
2023/10/26 10:32:00;;;;;;;17.92;14.02;;;;;;;;;;5064532;27;99181;-74
2023/10/26 10:34:41;;;;;;;17.63;13.23;;;;;;;;;;5062406;27;99069;-75
2023/10/26 10:37:11;;;;;;;22.73;13.73;;;;;;;;;;5054548;27;99485;-74
2023/10/26 10:39:38;;;;;;;18.95;14.27;;;;;;;;;;5050906;27;99028;-74
2023/10/26 10:42:10;;;;;;;19.48;14.52;;;;;;;;;;5064158;27;99330;-74
2023/10/26 10:44:37;;;;;;;17.95;14.68;;;;;;;;;;5054292;27;100251;-74
2023/10/26 10:47:06;;;;;;;18.17;13.70;;;;;;;;;;5054112;27;99523;-74
2023/10/26 10:49:32;;;;;;;17.50;13.20;;;;;;;;;;5065100;27;99711;-75
2023/10/26 10:51:59;;;;;;;15.48;12.27;;;;;;;;;;5056908;27;99984;-74
2023/10/26 10:54:25;;;;;;;16.90;13.05;;;;;;;;;;5056660;27;99975;-74
2023/10/26 10:57:12;;;;;;;16.30;12.73;;;;;;;;;;5062382;27;100449;-74
2023/10/26 10:59:38;;;;;;;18.50;14.13;;;;;;;;;;5051738;27;99260;-74
2023/10/26 11:02:06;;;;;;;16.77;13.40;;;;;;;;;;5057153;27;98906;-74
2023/10/26 11:04:34;;;;;;;19.20;12.77;;;;;;;;;;5049006;27;99487;-74
2023/10/26 11:07:13;;;;;;;16.42;12.85;;;;;;;;;;5067455;27;99303;-74
2023/10/26 11:09:40;;;;;;;14.38;12.63;;;;;;;;;;5064448;27;100407;-74
2023/10/26 11:12:11;;;;;;;15.85;13.23;;;;;;;;;;5056337;27;99034;-74
2023/10/26 11:14:50;;;;;;;18.40;13.40;;;;;;;;;;5063799;27;99995;-74
2023/10/26 11:17:17;;;;;;;14.85;13.38;;;;;;;;;;5063158;27;100351;-74
2023/10/26 11:19:44;;;;;;;17.40;13.60;;;;;;;;;;5051045;27;99911;-74
2023/10/26 11:22:14;;;;;;;16.83;12.88;;;;;;;;;;5053539;27;100204;-74
2023/10/26 11:24:41;;;;;;;13.95;12.45;;;;;;;;;;5065335;27;100185;-75
2023/10/26 11:27:12;;;;;;;16.15;11.70;;;;;;;;;;5051072;27;98882;-75
2023/10/26 11:29:43;;;;;;;14.85;12.68;;;;;;;;;;5069106;27;100415;-75
2023/10/26 11:32:25;;;;;;;14.82;11.88;;;;;;;;;;5066665;27;99458;-74
2023/10/26 11:35:11;;;;;;;14.97;12.50;;;;;;;;;;5044489;27;101422;-74
2023/10/26 11:37:40;;;;;;;17.00;13.55;;;;;;;;;;5056630;27;100321;-74
2023/10/26 11:40:07;;;;;;;14.57;12.38;;;;;;;;;;5048414;27;100051;-74
2023/10/26 11:42:52;;;;;;;18.33;12.60;;;;;;;;;;5043555;27;99018;-73
2023/10/26 11:45:20;;;;;;;19.67;12.30;;;;;;;;;;5053628;27;100393;-74
2023/10/26 11:47:47;;;;;;;17.88;12.50;;;;;;;;;;5057689;27;99982;-73
2023/10/26 11:50:27;;;;;;;16.83;12.73;;;;;;;;;;5070344;27;100087;-73
2023/10/26 11:53:03;;;;;;;19.30;13.30;;;;;;;;;;5067729;27;99965;-73
2023/10/26 11:55:31;;;;;;;19.95;13.55;;;;;;;;;;5059194;27;99939;-74
2023/10/26 11:57:59;;;;;;;21.08;12.98;;;;;;;;;;5066415;27;101280;-74
2023/10/26 12:00:27;;;;;;;19.58;12.60;;;;;;;;;;5062142;27;99850;-73
2023/10/26 12:02:54;;;;;;;17.35;12.57;;;;;;;;;;5061059;27;99835;-73
2023/10/26 12:05:22;;;;;;;15.52;12.35;;;;;;;;;;5065848;27;99384;-74
2023/10/26 12:07:49;;;;;;;16.70;12.80;;;;;;;;;;5063011;27;100276;-73
2023/10/26 12:10:17;;;;;;;16.35;12.77;;;;;;;;;;5063716;27;100185;-74
2023/10/26 12:12:44;;;;;;;17.85;12.57;;;;;;;;;;5070018;27;99558;-73
2023/10/26 12:15:11;;;;;;;16.20;13.02;;;;;;;;;;5060826;27;100342;-74
2023/10/26 12:17:37;;;;;;;13.57;11.15;;;;;;;;;;5065530;27;100116;-74
2023/10/26 12:20:04;;;;;;;14.15;11.80;;;;;;;;;;5067211;27;100129;-74
2023/10/26 12:22:32;;;;;;;17.30;11.23;;;;;;;;;;5058353;27;100163;-74
2023/10/26 12:25:04;;;;;;;13.05;11.60;;;;;;;;;;5061188;27;100212;-74
2023/10/26 12:27:32;;;;;;;12.35;10.77;;;;;;;;;;5055459;27;99977;-74
2023/10/26 12:30:18;;;;;;;11.52;10.38;;;;;;;;;;5051097;27;99932;-74
2023/10/26 12:32:45;;;;;;;12.60;10.80;;;;;;;;;;5049822;27;99438;-74
2023/10/26 12:35:12;;;;;;;13.48;10.70;;;;;;;;;;5070031;27;98916;-73
2023/10/26 12:37:39;;;;;;;12.68;11.35;;;;;;;;;;5058017;27;100262;-74
2023/10/26 12:40:08;;;;;;;11.18;9.98;;;;;;;;;;5066868;27;99538;-74
2023/10/26 12:42:35;;;;;;;14.38;10.90;;;;;;;;;;5065323;27;99519;-74
2023/10/26 12:45:01;;;;;;;11.57;9.93;;;;;;;;;;5047337;27;100478;-74
2023/10/26 12:47:28;;;;;;;9.77;8.82;;;;;;;;;;5045819;27;99340;-74
2023/10/26 12:49:54;;;;;;;10.43;9.32;;;;;;;;;;5063438;27;100404;-75
2023/10/26 12:52:21;;;;;;;14.63;9.82;;;;;;;;;;5046774;27;101024;-74
2023/10/26 12:54:47;;;;;;;14.38;8.75;;;;;;;;;;5057127;27;99745;-74
2023/10/26 12:57:13;;;;;;;11.15;10.05;;;;;;;;;;5062015;27;100324;-74
2023/10/26 12:59:40;;;;;;;12.77;10.35;;;;;;;;;;5066333;27;99911;-75
2023/10/26 13:02:06;;;;;;;10.57;9.57;;;;;;;;;;5064744;27;98900;-75
2023/10/26 13:04:33;;;;;;;10.45;9.45;;;;;;;;;;5047091;27;98814;-75
2023/10/26 13:07:00;;;;;;;11.55;10.18;;;;;;;;;;5065908;27;99282;-73
2023/10/26 13:09:26;;;;;;;11.82;10.00;;;;;;;;;;5065915;27;99388;-73
2023/10/26 13:11:54;;;;;;;11.75;8.90;;;;;;;;;;5058100;27;101293;-74
2023/10/26 13:14:21;;;;;;;11.77;10.13;;;;;;;;;;5065960;27;99290;-74
2023/10/26 13:16:47;;;;;;;12.88;10.35;;;;;;;;;;5064479;27;99990;-74
2023/10/26 13:19:22;;;;;;;10.60;9.35;;;;;;;;;;5056467;27;100412;-76
2023/10/26 13:21:49;;;;;;;11.07;9.43;;;;;;;;;;5065756;27;99341;-75
2023/10/26 13:24:15;;;;;;;9.23;8.38;;;;;;;;;;5063946;27;100095;-74
2023/10/26 13:26:42;;;;;;;10.25;8.45;;;;;;;;;;5066343;27;100085;-74
2023/10/26 13:29:08;;;;;;;9.80;8.93;;;;;;;;;;5065894;27;99969;-75
2023/10/26 13:31:34;;;;;;;11.75;8.82;;;;;;;;;;5050135;27;100254;-75
2023/10/26 13:34:02;;;;;;;11.50;8.68;;;;;;;;;;5057773;27;99415;-74
2023/10/26 13:36:28;;;;;;;11.02;9.93;;;;;;;;;;5064561;27;99940;-73
2023/10/26 13:38:55;;;;;;;11.00;8.88;;;;;;;;;;5053134;27;100114;-74
2023/10/26 13:41:23;;;;;;;10.82;9.55;;;;;;;;;;5065627;27;99970;-74
2023/10/26 13:43:53;;;;;;;10.65;9.60;;;;;;;;;;5063786;27;100248;-75
2023/10/26 13:46:19;;;;;;;9.63;8.63;;;;;;;;;;5047359;27;100452;-75
2023/10/26 13:48:47;;;;;;;12.02;10.13;;;;;;;;;;5063317;27;99667;-74
2023/10/26 13:51:17;;;;;;;10.00;9.10;;;;;;;;;;5064609;27;99368;-74
2023/10/26 13:53:44;;;;;;;10.60;9.57;;;;;;;;;;5058318;27;98982;-74
2023/10/26 13:56:10;;;;;;;11.65;9.48;;;;;;;;;;5065294;27;99342;-74
2023/10/26 13:58:37;;;;;;;11.63;9.13;;;;;;;;;;5050407;27;100242;-74
2023/10/26 14:01:13;;;;;;;10.32;8.98;;;;;;;;;;5066270;27;99286;-74
2023/10/26 14:03:40;;;;;;;10.55;9.55;;;;;;;;;;5057490;27;101709;-74
2023/10/26 14:06:11;;;;;;;10.32;9.32;;;;;;;;;;5065399;27;98795;-75
2023/10/26 14:08:39;;;;;;;10.77;9.70;;;;;;;;;;5058179;27;100514;-75
2023/10/26 14:11:05;;;;;;;11.27;10.10;;;;;;;;;;5064811;27;100526;-74
2023/10/26 14:13:32;;;;;;;12.30;10.20;;;;;;;;;;5065101;27;100431;-74